Sunday, September 25, 2016

  Over 48,494,314 pages visited!

GMT:
19:07
PACIFIC:
12:07:09 PM
MOUNTAIN:
1:07:09 PM

CENTRAL:
2:07:09 PM

EASTERN:
3:07:09 PM
ATLANTIC:
4:07:09 PM
NEWFOUNDLAND:
4:37:09 PM
 

 


Watches/Warnings
Current Conditions
Radar/Satellite
Lightning Images


Current Weather Conditions For TORONTO PEARSON,ON

 


A Few Clouds
 

Temperature: 17�C / 63�F
Dew Point: 07 �C / 45�F
Humidity: 52 %
Pressure: 1023.7 mbs (30.23 inches)
Visibility: 24.1 kms (15 SM)
Wind Direction: SE (130�)
Wind Speed: 11.1 Km/h (6.9 MPH)
Max Wind Gust: No Gusts
Humidex: N/A
WindChill: N/A
    

Observation Information

Date/Time: Sunday, September 25, 2016 @ 18:00Z
Local Time:
Metar Coded: CYYZ 251800Z 13006KT 15SM FEW040 SCT140 BKN250 17/07 A3022 RMK CU1AC2CI3 SLP237

 

 

                   1997-2016 The Ontario Weather Page